Bremgarten, Germany

9:59 PM CEST on August 29, 2014 (GMT +0200)
Black Forrest Bad Krozingen Southbaden | Change Station
CLOSE
Current Station
Personal Weather Station
Location: Bad Krozingen, BADEN-WüRTTEMBERG
Elevation: 758 ft
Nearby Weather Stations

Elev 758 ft 47.92 °N, 7.71 °E | Updated 10 seconds ago

Light Rain Showers
Light Showers Rain
65.5 °F
Feels Like 65.5 °F
N
0.0
Wind Variable Wind from SSE
Gusts 0.0 mph

Today
High -- | Low -- °F
--% Chance of Precip.
Yesterday
High -- | Low -- °F
Precip. -- in
6:43 AM 8:16 PM
Waxing Crescent, 16% visible
Pressure 30.09 in
Visibility 6.2 miles
Clouds Few 2000 ft
Few 2500 ft
Mostly Cloudy 11000 ft
Dew Point 62 °F
Humidity 89%
Rainfall 0.20 in
Snow Depth Not available.
UV 0.0 out of 12
Pollen Not available.
Air Quality Not available.
Flu Activity Not available.
METAR LFSB 291930Z VRB03KT 9999 -SHRA FEW020 FEW025TCU BKN110 18/16 Q1019 TEMPO -SHRA SCT025TCU

More Conditions Fewer Conditions

Pressure 30.09 in
Visibility 6.2 miles
Clouds Few 2000 ft
Few 2500 ft
Mostly Cloudy 11000 ft
Dew Point 62 °F
Humidity 89%
Rainfall 0.20 in
Snow Depth Not available.
UV 0.0 out of 12
Pollen Not available.
Air Quality Not available.
Flu Activity Not available.
METAR LFSB 291930Z VRB03KT 9999 -SHRA FEW020 FEW025TCU BKN110 18/16 Q1019 TEMPO -SHRA SCT025TCU

More Conditions Fewer Conditions

10-Day Weather Forecast

Almanac

Astronomy

Aug. 29, 2014 Rise Set
Actual Time 6:43 AM CEST 8:16 PM CEST
Civil Twilight 6:10 AM CEST 8:49 PM CEST
Nautical Twilight 5:31 AM CEST 9:28 PM CEST
Astronomical Twilight 4:48 AM CEST 10:11 PM CEST
Moon 10:36 AM CEST 9:44 PM CEST
Length of Visible Light 14h 38m
Length of Day
13h 33m
Tomorrow will be 3m 20s shorter.
Waxing Crescent, 16% of the Moon is Illuminated
Today
Waxing Crescent
Sep 2
First Quarter
Sep 8
Full
Sep 15
Last Quarter
Sep 24
New

Today's Extremes

Country Highs Country Lows

Community

WunderPhotos

Upload Photos

1,748,325 photos uploaded!

WunderBlogs® & News

By Dr. Jeff Masters
Director of Meteorology, Weather Underground
By Kari Strenfel
Meteorologist, Weather Underground
By Christopher C. Burt
Weather Historian, Weather Underground
August 29, 2014
August 29, 2014
August 29, 2014

Nearby

Snow Depth

Not available.

Earthquake Activity

City Distance Mag. Time & Date
No recent earthquake activity has been reported nearby.
Minimum magnitude displayed is 2.5.

Coastal Water Temperatures

Place Temperature
No Stations Reporting

Nearby Weather Stations